Time;durP1;ratioP1;P1;durP2;ratioP2;P2;SDS_P1;SDS_P2;PMS_P1;PMS_P2;Temp;Humidity;BMP_temperature;BMP_pressure;BME280_temperature;BME280_humidity;BME280_pressure;Samples;Min_cycle;Max_cycle;Signal;HPM_P1;HPM_P2
2022/09/04 00:01:48;;;;;;;4.57;2.67;;;;;;;13.72;100.00;101034.44;5018501;28;20279;-72
2022/09/04 00:04:24;;;;;;;4.30;2.63;;;;;;;13.77;100.00;101040.38;5019363;28;20195;-73
2022/09/04 00:07:01;;;;;;;4.27;2.73;;;;;;;13.77;100.00;101037.75;5021060;28;20314;-72
2022/09/04 00:09:37;;;;;;;3.17;2.33;;;;;;;13.80;100.00;101047.28;5019050;28;20688;-71
2022/09/04 00:12:08;;;;;;;2.63;2.20;;;;;;;13.82;100.00;101042.81;5022493;28;20596;-73
2022/09/04 00:14:42;;;;;;;4.23;2.17;;;;;;;13.83;100.00;101052.41;5019334;28;20192;-72
2022/09/04 00:17:14;;;;;;;3.20;2.20;;;;;;;13.82;100.00;101046.31;5019391;28;20206;-71
2022/09/04 00:19:47;;;;;;;2.30;2.03;;;;;;;13.82;100.00;101046.31;5001589;28;20705;-73
2022/09/04 00:22:25;;;;;;;5.73;2.33;;;;;;;13.81;100.00;101043.75;5000579;28;20228;-73
2022/09/04 00:24:59;;;;;;;4.50;2.20;;;;;;;13.81;100.00;101057.69;4998906;28;20203;-72
2022/09/04 00:27:29;;;;;;;4.27;2.37;;;;;;;13.81;100.00;101062.09;4996836;28;20581;-73
2022/09/04 00:30:02;;;;;;;3.07;2.23;;;;;;;13.77;100.00;101061.34;4995669;28;20208;-73
2022/09/04 00:32:33;;;;;;;3.83;2.20;;;;;;;13.75;100.00;101068.38;4983597;28;20205;-73
2022/09/04 00:35:10;;;;;;;3.13;1.93;;;;;;;13.76;100.00;101077.09;4997028;28;20209;-73
2022/09/04 00:37:44;;;;;;;3.33;2.03;;;;;;;13.72;100.00;101075.47;5000273;28;20479;-72
2022/09/04 00:40:20;;;;;;;6.87;1.97;;;;;;;13.71;100.00;101079.03;4998486;28;20195;-72
2022/09/04 00:43:05;;;;;;;2.77;2.00;;;;;;;13.70;100.00;101074.66;5001136;28;20208;-72
2022/09/04 00:45:46;;;;;;;3.13;2.03;;;;;;;13.66;100.00;101073.91;4999416;28;20270;-72
2022/09/04 00:48:23;;;;;;;3.60;2.00;;;;;;;13.63;100.00;101072.25;5001439;28;20248;-73
2022/09/04 00:51:10;;;;;;;4.13;2.37;;;;;;;13.58;100.00;101075.94;5004137;28;20211;-73
2022/09/04 00:53:51;;;;;;;2.63;1.87;;;;;;;13.56;100.00;101078.59;4999245;28;20204;-73
2022/09/04 00:56:49;;;;;;;2.90;2.20;;;;;;;13.50;100.00;101083.16;4998060;28;20196;-70
2022/09/04 00:59:32;;;;;;;3.53;2.20;;;;;;;13.45;100.00;101080.69;5000782;28;20220;-72
2022/09/04 01:02:08;;;;;;;2.97;2.07;;;;;;;13.40;100.00;101088.69;5000783;28;20201;-73
2022/09/04 01:04:43;;;;;;;2.47;1.90;;;;;;;13.34;100.00;101080.16;5000655;28;20304;-73
2022/09/04 01:07:30;;;;;;;2.33;2.07;;;;;;;13.31;100.00;101085.44;4982251;28;20212;-73
2022/09/04 01:10:11;;;;;;;3.33;2.00;;;;;;;13.23;100.00;101080.47;4997187;28;20702;-73
2022/09/04 01:12:45;;;;;;;2.30;2.07;;;;;;;13.19;100.00;101086.66;5002450;28;20200;-73
2022/09/04 01:15:18;;;;;;;4.03;2.27;;;;;;;13.16;100.00;101094.63;4998644;28;20290;-73
2022/09/04 01:17:54;;;;;;;5.00;2.30;;;;;;;13.10;100.00;101085.19;5005604;28;20231;-72
2022/09/04 01:20:31;;;;;;;2.73;2.23;;;;;;;13.05;100.00;101085.34;5021733;28;20206;-73
2022/09/04 01:23:21;;;;;;;4.63;1.80;;;;;;;13.01;100.00;101088.06;5022169;28;20212;-73
2022/09/04 01:26:04;;;;;;;3.43;2.20;;;;;;;12.97;100.00;101099.53;5018939;28;20623;-73
2022/09/04 01:28:39;;;;;;;2.77;1.80;;;;;;;12.95;100.00;101094.34;5021222;28;20231;-73
2022/09/04 01:31:13;;;;;;;3.83;2.50;;;;;;;12.93;100.00;101100.50;5022953;28;20211;-73
2022/09/04 01:33:49;;;;;;;3.47;2.33;;;;;;;12.88;100.00;101104.13;5020346;28;20218;-73
2022/09/04 01:36:26;;;;;;;3.83;2.30;;;;;;;12.86;100.00;101103.31;5020577;28;20208;-72
2022/09/04 01:38:57;;;;;;;3.30;2.20;;;;;;;12.81;100.00;101102.59;5004390;28;20225;-72
2022/09/04 01:41:29;;;;;;;2.50;2.10;;;;;;;12.81;100.00;101093.88;5021659;28;20412;-73
2022/09/04 01:43:56;;;;;;;2.77;2.20;;;;;;;12.76;100.00;101099.22;5018768;28;20692;-72
2022/09/04 01:46:53;;;;;;;7.67;2.40;;;;;;;12.71;100.00;101098.50;5019567;28;20219;-73
2022/09/04 01:49:30;;;;;;;2.73;2.20;;;;;;;12.66;100.00;101096.03;5018059;28;20227;-73
2022/09/04 01:52:05;;;;;;;2.30;1.90;;;;;;;12.60;100.00;101088.34;5021152;28;20683;-73
2022/09/04 01:54:46;;;;;;;2.93;2.20;;;;;;;12.56;100.00;101081.47;5020725;28;20196;-73
2022/09/04 01:57:26;;;;;;;4.40;2.40;;;;;;;12.54;100.00;101090.25;5023249;28;20664;-72
2022/09/04 02:00:04;;;;;;;3.77;2.20;;;;;;;12.49;100.00;101085.16;5022019;28;20567;-71
2022/09/04 02:02:41;;;;;;;3.93;2.10;;;;;;;12.48;100.00;101091.28;5025784;28;20219;-71
2022/09/04 02:05:17;;;;;;;5.83;2.30;;;;;;;12.43;100.00;101090.53;5015077;28;20615;-73
2022/09/04 02:07:47;;;;;;;3.10;2.03;;;;;;;12.40;100.00;101093.22;5023039;28;20215;-73
2022/09/04 02:10:26;;;;;;;3.20;2.20;;;;;;;12.37;100.00;101093.34;5025912;28;20199;-73
2022/09/04 02:13:07;;;;;;;2.57;1.90;;;;;;;12.31;100.00;101095.22;5021914;28;20199;-73
2022/09/04 02:15:43;;;;;;;3.73;2.13;;;;;;;12.29;100.00;101083.06;5022302;28;20206;-72
2022/09/04 02:18:19;;;;;;;3.43;2.37;;;;;;;12.22;100.00;101091.94;5025481;28;20367;-73
2022/09/04 02:20:52;;;;;;;5.53;2.00;;;;;;;12.19;100.00;101082.44;5028296;28;20282;-72
2022/09/04 02:23:25;;;;;;;3.23;2.20;;;;;;;12.17;100.00;101085.97;5024897;28;20225;-72
2022/09/04 02:26:01;;;;;;;3.37;2.00;;;;;;;12.13;100.00;101087.81;5022349;28;20199;-71
2022/09/04 02:28:39;;;;;;;9.67;2.10;;;;;;;12.10;100.00;101085.28;5027882;28;20715;-73
2022/09/04 02:31:15;;;;;;;6.63;2.10;;;;;;;12.02;100.00;101095.06;5027195;28;20212;-73
2022/09/04 02:33:47;;;;;;;6.80;2.10;;;;;;;11.96;100.00;101098.72;5027416;28;20738;-72
2022/09/04 02:36:20;;;;;;;2.03;1.70;;;;;;;11.92;100.00;101099.66;5025593;28;20209;-73
2022/09/04 02:38:55;;;;;;;4.10;2.17;;;;;;;11.87;100.00;101093.66;5031690;28;20233;-73
2022/09/04 02:41:29;;;;;;;2.80;1.93;;;;;;;11.81;100.00;101099.88;5024650;28;20214;-72
2022/09/04 02:44:15;;;;;;;2.33;1.80;;;;;;;11.80;100.00;101102.53;5024449;28;20218;-73
2022/09/04 02:46:53;;;;;;;3.87;2.10;;;;;;;11.75;100.00;101093.06;5019477;28;20198;-72
2022/09/04 02:49:29;;;;;;;5.73;1.90;;;;;;;11.73;100.00;101104.41;5027388;28;20213;-72
2022/09/04 02:52:07;;;;;;;3.53;1.80;;;;;;;11.71;100.00;101101.00;5021301;28;20207;-73
2022/09/04 02:54:47;;;;;;;2.50;2.00;;;;;;;11.69;100.00;101100.16;5028165;28;20197;-73
2022/09/04 02:57:29;;;;;;;3.90;1.90;;;;;;;11.64;100.00;101113.31;5025014;28;20791;-73
2022/09/04 03:00:06;;;;;;;4.60;1.90;;;;;;;11.61;100.00;101102.09;5020844;28;20206;-73
2022/09/04 03:02:38;;;;;;;2.30;1.93;;;;;;;11.59;100.00;101101.28;5027401;28;20201;-73
2022/09/04 03:05:11;;;;;;;3.03;1.73;;;;;;;11.55;100.00;101105.72;5022721;28;20679;-73
2022/09/04 03:07:45;;;;;;;4.30;2.13;;;;;;;11.54;100.00;101096.19;5016469;28;20228;-72
2022/09/04 03:10:16;;;;;;;2.53;2.03;;;;;;;11.54;100.00;101104.00;5025198;28;20228;-73
2022/09/04 03:12:48;;;;;;;3.57;2.20;;;;;;;11.51;100.00;101102.31;5022643;28;20196;-73
2022/09/04 03:15:23;;;;;;;3.63;2.17;;;;;;;11.52;100.00;101104.03;5024308;28;20810;-72
2022/09/04 03:17:57;;;;;;;3.33;1.80;;;;;;;11.53;100.00;101108.34;5035544;22;20225;-73
2022/09/04 03:20:25;;;;;;;5.40;2.40;;;;;;;11.51;100.00;101104.06;4998262;28;20594;-73
2022/09/04 03:22:58;;;;;;;2.67;1.70;;;;;;;11.52;100.00;101096.19;4988077;28;20732;-74
2022/09/04 03:25:54;;;;;;;4.73;2.10;;;;;;;11.50;100.00;101103.22;5003658;28;20201;-72
2022/09/04 03:28:31;;;;;;;3.13;1.70;;;;;;;11.47;100.00;101100.66;4979062;28;20231;-74
2022/09/04 03:31:13;;;;;;;2.97;1.80;;;;;;;11.47;100.00;101105.03;5002410;28;20191;-71
2022/09/04 03:33:46;;;;;;;2.43;2.00;;;;;;;11.49;100.00;101108.47;5001520;28;20204;-74
2022/09/04 03:36:18;;;;;;;3.17;2.10;;;;;;;11.46;100.00;101105.91;5002222;28;20954;-73
2022/09/04 03:38:53;;;;;;;2.07;1.60;;;;;;;11.41;100.00;101106.00;4989573;28;20217;-74
2022/09/04 03:41:33;;;;;;;2.23;1.90;;;;;;;11.40;100.00;101109.53;5003608;28;20200;-73
2022/09/04 03:44:12;;;;;;;3.53;1.70;;;;;;;11.40;100.00;101116.47;5002821;28;20227;-73
2022/09/04 03:46:53;;;;;;;4.63;2.10;;;;;;;11.34;100.00;101110.53;4987634;28;20197;-73
2022/09/04 03:49:36;;;;;;;2.50;1.40;;;;;;;11.30;100.00;101110.63;5002598;28;20216;-74
2022/09/04 03:52:08;;;;;;;3.10;1.80;;;;;;;11.28;100.00;101115.00;5003117;28;20228;-72
2022/09/04 03:54:49;;;;;;;2.83;1.70;;;;;;;11.24;100.00;101111.63;4999882;28;20700;-74
2022/09/04 03:57:28;;;;;;;2.73;1.87;;;;;;;11.22;100.00;101117.75;4985580;28;20204;-72
2022/09/04 04:00:04;;;;;;;3.33;1.83;;;;;;;11.18;100.00;101115.19;4995027;28;20217;-74
2022/09/04 04:02:59;;;;;;;3.20;1.90;;;;;;;11.15;100.00;101120.50;5001451;28;20235;-73
2022/09/04 04:05:35;;;;;;;2.87;1.73;;;;;;;11.12;100.00;101124.91;5002027;28;20208;-73
2022/09/04 04:08:18;;;;;;;2.53;1.37;;;;;;;11.09;100.00;101120.59;5000449;28;20225;-73
2022/09/04 04:10:58;;;;;;;3.17;1.90;;;;;;;11.05;100.00;101115.50;5002378;28;20197;-74
2022/09/04 04:13:36;;;;;;;2.93;1.53;;;;;;;11.00;100.00;101123.41;4986092;28;20216;-74
2022/09/04 04:16:13;;;;;;;2.90;1.93;;;;;;;11.01;100.00;101129.47;5003009;28;20556;-74
2022/09/04 04:18:54;;;;;;;3.47;1.87;;;;;;;10.99;100.00;101122.56;5000722;28;20600;-73
2022/09/04 04:21:36;;;;;;;2.83;1.90;;;;;;;10.95;100.00;101133.06;5002648;28;20577;-74
2022/09/04 04:24:28;;;;;;;3.03;1.93;;;;;;;10.91;100.00;101128.81;5001257;28;20559;-73
2022/09/04 04:27:09;;;;;;;3.23;1.83;;;;;;;10.89;100.00;101134.06;4987568;28;20208;-72
2022/09/04 04:30:03;;;;;;;4.30;1.93;;;;;;;10.88;100.00;101134.09;4988403;28;20228;-72
2022/09/04 04:32:44;;;;;;;2.13;1.50;;;;;;;10.88;100.00;101134.09;5004442;28;20202;-73
2022/09/04 04:35:21;;;;;;;2.33;1.80;;;;;;;10.88;100.00;101139.31;5001617;28;20200;-73
2022/09/04 04:38:02;;;;;;;4.13;1.90;;;;;;;10.86;100.00;101141.09;5000520;28;20208;-72
2022/09/04 04:40:46;;;;;;;3.37;1.80;;;;;;;10.83;100.00;101136.75;5002292;28;20201;-73
2022/09/04 04:43:20;;;;;;;3.23;2.00;;;;;;;10.81;100.00;101133.34;5003209;28;20217;-73
2022/09/04 04:45:53;;;;;;;2.60;1.60;;;;;;;10.83;100.00;101143.75;4999394;28;20209;-73
2022/09/04 04:48:52;;;;;;;3.20;1.70;;;;;;;10.85;100.00;101141.97;4986380;28;20706;-73
2022/09/04 04:51:32;;;;;;;4.13;1.80;;;;;;;10.86;100.00;101144.53;5000382;28;20200;-73
2022/09/04 04:54:14;;;;;;;1.77;1.50;;;;;;;10.90;100.00;101150.56;5000323;28;20201;-73
2022/09/04 04:56:47;;;;;;;2.60;1.67;;;;;;;10.91;100.00;101150.53;4999794;28;20201;-73
2022/09/04 04:59:22;;;;;;;2.43;1.80;;;;;;;10.90;100.00;101156.63;5000066;28;20225;-72
2022/09/04 05:01:58;;;;;;;2.77;1.90;;;;;;;10.91;100.00;101163.56;4985212;28;20193;-73
2022/09/04 05:04:32;;;;;;;2.40;1.63;;;;;;;10.93;100.00;101169.63;5002066;28;20497;-72
2022/09/04 05:07:13;;;;;;;2.27;1.80;;;;;;;10.94;100.00;101166.13;5001809;28;20219;-72
2022/09/04 05:09:46;;;;;;;3.27;1.90;;;;;;;10.99;100.00;101168.63;5000881;28;20225;-73
2022/09/04 05:12:22;;;;;;;2.00;1.77;;;;;;;11.01;100.00;101179.06;5003280;28;20562;-73
2022/09/04 05:14:54;;;;;;;2.47;1.80;;;;;;;11.04;100.00;101181.59;5000538;28;20197;-73
2022/09/04 05:17:29;;;;;;;3.33;1.70;;;;;;;11.06;100.00;101179.81;5000944;28;20211;-73
2022/09/04 05:20:18;;;;;;;1.73;1.50;;;;;;;11.11;100.00;101178.00;5000676;28;20228;-73
2022/09/04 05:22:51;;;;;;;2.67;1.80;;;;;;;11.15;100.00;101183.13;5000873;28;20206;-73
2022/09/04 05:25:26;;;;;;;4.27;1.53;;;;;;;11.18;100.00;101183.03;5003172;28;20233;-73
2022/09/04 05:28:01;;;;;;;2.57;1.97;;;;;;;11.23;100.00;101184.72;4999193;28;20224;-73
2022/09/04 05:30:35;;;;;;;2.77;1.80;;;;;;;11.25;100.00;101188.16;5005619;28;20223;-73
2022/09/04 05:33:10;;;;;;;2.50;1.80;;;;;;;11.30;100.00;101188.94;5003730;28;20203;-73
2022/09/04 05:35:46;;;;;;;2.87;1.80;;;;;;;11.34;100.00;101193.19;5002309;28;20595;-73
2022/09/04 05:38:21;;;;;;;2.23;1.60;;;;;;;11.38;100.00;101192.25;5006084;28;21062;-72
2022/09/04 05:41:04;;;;;;;3.87;1.90;;;;;;;11.43;100.00;101197.38;5004918;28;20200;-73
2022/09/04 05:43:45;;;;;;;2.20;1.70;;;;;;;11.48;100.00;101201.59;5000571;28;20205;-74
2022/09/04 05:46:25;;;;;;;4.43;1.93;;;;;;;11.53;100.00;101212.81;5001731;28;20572;-73
2022/09/04 05:49:00;;;;;;;2.87;1.60;;;;;;;11.59;100.00;101213.56;5002850;28;20224;-73
2022/09/04 05:51:51;;;;;;;3.73;2.10;;;;;;;11.67;100.00;101220.34;5002753;28;20209;-73
2022/09/04 05:54:36;;;;;;;2.10;1.87;;;;;;;11.75;100.00;101223.69;5000756;28;20200;-72
2022/09/04 05:57:18;;;;;;;3.13;2.00;;;;;;;11.84;100.00;101224.38;5005162;28;20198;-73
2022/09/04 06:00:07;;;;;;;3.73;1.53;;;;;;;11.91;100.00;101229.47;5002275;28;20221;-73
2022/09/04 06:02:58;;;;;;;2.40;1.93;;;;;;;12.01;100.00;101231.84;4987684;28;20207;-73
2022/09/04 06:05:31;;;;;;;2.30;1.80;;;;;;;12.09;100.00;101230.78;5001531;28;20596;-73
2022/09/04 06:08:06;;;;;;;2.00;1.77;;;;;;;12.16;100.00;101234.13;5002997;28;20233;-74
2022/09/04 06:10:55;;;;;;;6.93;1.73;;;;;;;12.26;100.00;101235.63;5005265;28;20369;-73
2022/09/04 06:13:40;;;;;;;2.93;1.87;;;;;;;12.35;100.00;101231.06;4999379;28;20222;-73
2022/09/04 06:16:21;;;;;;;2.73;2.10;;;;;;;12.44;100.00;101241.34;5003277;28;20609;-72
2022/09/04 06:19:11;;;;;;;3.67;1.90;;;;;;;12.52;100.00;101241.97;4993081;28;20235;-73
2022/09/04 06:21:59;;;;;;;2.43;1.87;;;;;;;12.63;100.00;101247.84;4983681;28;20222;-73
2022/09/04 06:24:40;;;;;;;4.07;2.40;;;;;;;12.72;100.00;101249.34;4982933;28;20216;-73
2022/09/04 06:27:21;;;;;;;4.90;2.10;;;;;;;12.81;100.00;101254.34;4979361;28;20205;-74
2022/09/04 06:30:04;;;;;;;4.27;2.20;;;;;;;12.89;100.00;101256.75;4983349;28;20224;-74
2022/09/04 06:32:56;;;;;;;3.43;2.10;;;;;;;12.99;100.00;101260.88;4983785;28;20621;-73
2022/09/04 06:35:50;;;;;;;3.57;2.33;;;;;;;13.11;100.00;101269.31;4982008;28;20200;-74
2022/09/04 06:38:31;;;;;;;3.20;2.13;;;;;;;13.16;100.00;101273.53;4983191;28;20223;-73
2022/09/04 06:41:14;;;;;;;8.77;2.90;;;;;;;13.26;100.00;101269.75;4982233;28;20205;-74
2022/09/04 06:43:49;;;;;;;3.27;2.50;;;;;;;13.32;100.00;101279.25;4981669;28;20938;-72
2022/09/04 06:46:24;;;;;;;3.63;2.53;;;;;;;13.38;100.00;101271.19;4984011;28;20205;-73
2022/09/04 06:49:01;;;;;;;4.47;2.50;;;;;;;13.50;100.00;101266.53;4983247;28;20600;-74
2022/09/04 06:51:40;;;;;;;4.50;2.40;;;;;;;13.62;100.00;101274.06;4984764;28;20681;-73
2022/09/04 06:54:16;;;;;;;4.50;2.90;;;;;;;13.68;100.00;101267.75;4981620;28;20222;-73
2022/09/04 06:57:03;;;;;;;3.60;2.30;;;;;;;13.76;100.00;101268.41;4982793;28;20232;-73
2022/09/04 06:59:55;;;;;;;3.00;2.27;;;;;;;13.84;100.00;101255.91;4982635;28;20216;-72
2022/09/04 07:02:46;;;;;;;3.23;2.33;;;;;;;13.93;100.00;101260.03;4980268;28;20295;-72
2022/09/04 07:05:22;;;;;;;4.03;2.43;;;;;;;14.10;100.00;101264.78;4982442;28;20225;-72
2022/09/04 07:07:56;;;;;;;3.80;2.37;;;;;;;14.18;100.00;101274.13;4995896;28;20201;-73
2022/09/04 07:10:28;;;;;;;2.73;2.13;;;;;;;14.28;100.00;101273.84;4977685;28;20660;-73
2022/09/04 07:13:23;;;;;;;3.13;2.23;;;;;;;14.35;100.00;101273.63;4981030;28;20209;-73
2022/09/04 07:16:13;;;;;;;3.50;2.10;;;;;;;14.48;100.00;101273.22;4982621;28;20244;-74
2022/09/04 07:18:57;;;;;;;2.87;2.47;;;;;;;14.61;100.00;101273.72;4989429;28;20299;-73
2022/09/04 07:21:30;;;;;;;2.50;2.10;;;;;;;14.73;100.00;101283.81;5003447;28;20661;-73
2022/09/04 07:24:03;;;;;;;3.47;2.80;;;;;;;14.81;100.00;101292.28;4997150;28;20213;-71
2022/09/04 07:26:37;;;;;;;4.80;2.30;;;;;;;14.83;100.00;101300.97;5001740;28;20205;-73
2022/09/04 07:29:26;;;;;;;3.30;2.40;;;;;;;14.91;100.00;101308.56;4998440;28;20242;-71
2022/09/04 07:32:01;;;;;;;2.80;2.10;;;;;;;14.99;100.00;101310.97;5002525;28;20570;-73
2022/09/04 07:34:39;;;;;;;4.20;2.67;;;;;;;15.08;100.00;101316.75;5000143;28;20573;-74
2022/09/04 07:37:13;;;;;;;3.10;2.50;;;;;;;15.24;100.00;101316.22;4999178;28;20214;-72
2022/09/04 07:39:48;;;;;;;2.67;2.10;;;;;;;15.39;100.00;101320.06;5003598;28;20211;-73
2022/09/04 07:42:21;;;;;;;3.50;2.23;;;;;;;15.50;100.00;101313.53;4998830;28;20200;-73
2022/09/04 07:44:58;;;;;;;2.43;2.13;;;;;;;15.59;100.00;101309.72;4998230;28;20218;-73
2022/09/04 07:47:34;;;;;;;4.27;2.23;;;;;;;15.69;100.00;101324.25;5001641;28;20608;-73
2022/09/04 07:50:08;;;;;;;3.00;2.40;;;;;;;15.73;100.00;101332.03;5003374;28;20726;-73
2022/09/04 07:52:56;;;;;;;2.43;2.07;;;;;;;15.81;100.00;101328.25;4999636;28;20207;-73
2022/09/04 07:55:33;;;;;;;2.90;2.43;;;;;;;15.92;100.00;101334.84;4983380;28;20204;-74
2022/09/04 07:58:24;;;;;;;3.50;2.70;;;;;;;16.00;100.00;101338.06;4997703;28;20212;-74
2022/09/04 08:01:04;;;;;;;3.30;2.33;;;;;;;16.09;100.00;101337.72;4983180;28;20531;-72
2022/09/04 08:03:52;;;;;;;3.47;2.43;;;;;;;16.21;100.00;101336.38;4992702;28;20200;-72
2022/09/04 08:06:26;;;;;;;4.27;2.47;;;;;;;16.28;100.00;101335.25;4998774;28;20208;-73
2022/09/04 08:09:16;;;;;;;2.53;2.03;;;;;;;16.37;100.00;101341.91;4997773;28;20306;-74
2022/09/04 08:11:57;;;;;;;2.93;2.30;;;;;;;16.45;100.00;101345.13;4988708;28;20220;-73
2022/09/04 08:14:41;;;;;;;2.97;2.27;;;;;;;16.54;100.00;101349.16;5001899;28;20247;-73
2022/09/04 08:17:32;;;;;;;2.77;2.20;;;;;;;16.64;100.00;101348.72;5000568;28;20200;-74
2022/09/04 08:20:11;;;;;;;4.53;2.33;;;;;;;16.80;100.00;101342.84;5000880;28;20228;-74
2022/09/04 08:22:47;;;;;;;2.47;2.17;;;;;;;16.92;100.00;101355.56;4999758;28;20207;-73
2022/09/04 08:25:19;;;;;;;2.77;2.17;;;;;;;16.95;100.00;101354.56;4999892;28;20219;-72
2022/09/04 08:28:01;;;;;;;2.50;2.30;;;;;;;17.07;100.00;101340.88;4996855;28;20267;-74
2022/09/04 08:30:33;;;;;;;3.10;2.07;;;;;;;17.15;100.00;101351.97;5001735;28;20822;-73
2022/09/04 08:33:38;;;;;;;3.20;2.27;;;;;;;17.28;99.11;101351.44;4998347;28;20734;-73
2022/09/04 08:36:12;;;;;;;3.13;2.10;;;;;;;17.32;97.74;101350.38;5004177;28;20637;-71
2022/09/04 08:38:55;;;;;;;2.63;2.23;;;;;;;17.41;99.13;101348.22;4999426;28;20227;-72
2022/09/04 08:42:14;;;;;;;2.73;2.23;;;;;;;17.58;98.86;101346.59;4998556;28;20205;-73
2022/09/04 08:45:22;;;;;;;4.70;2.23;;;;;;;17.68;96.59;101354.97;4994812;28;20328;-72
2022/09/04 08:48:22;;;;;;;2.17;1.83;;;;;;;17.74;95.67;101352.06;4997956;28;20200;-73
2022/09/04 08:51:07;;;;;;;2.47;1.93;;;;;;;17.85;96.44;101355.06;4999705;28;20211;-73
2022/09/04 08:54:08;;;;;;;3.03;2.27;;;;;;;17.95;97.44;101355.53;5000966;28;20204;-73
2022/09/04 08:56:41;;;;;;;2.27;2.00;;;;;;;18.04;93.89;101362.19;4995527;28;20201;-73
2022/09/04 08:59:39;;;;;;;3.40;2.20;;;;;;;18.05;93.65;101361.28;5002810;28;20310;-74
2022/09/04 09:02:24;;;;;;;3.37;2.00;;;;;;;18.26;93.18;101365.53;5003035;28;20208;-73
2022/09/04 09:05:28;;;;;;;3.90;2.03;;;;;;;18.20;90.83;101375.53;4999688;28;20213;-72
2022/09/04 09:08:15;;;;;;;3.10;2.20;;;;;;;18.31;92.33;101379.38;4998890;28;20219;-73
2022/09/04 09:11:02;;;;;;;3.13;2.00;;;;;;;18.38;89.78;101389.66;5001057;28;20210;-73
2022/09/04 09:14:06;;;;;;;2.47;1.90;;;;;;;18.54;91.46;101391.50;5001976;28;20196;-74
2022/09/04 09:16:42;;;;;;;1.90;1.80;;;;;;;18.59;88.49;101386.00;5003214;28;20280;-73
2022/09/04 09:19:18;;;;;;;4.03;2.20;;;;;;;18.67;90.25;101372.44;4995071;28;20224;-73
2022/09/04 09:21:48;;;;;;;2.90;2.10;;;;;;;18.80;89.51;101368.25;4983804;28;20344;-73
2022/09/04 09:24:54;;;;;;;4.23;2.23;;;;;;;18.78;88.13;101377.19;4981186;28;20268;-73
2022/09/04 09:27:57;;;;;;;3.80;2.30;;;;;;;18.84;88.59;101376.94;4982343;28;20205;-73
2022/09/04 09:30:24;;;;;;;3.13;2.30;;;;;;;19.03;88.68;101368.94;4960330;28;20221;-73
2022/09/04 09:33:24;;;;;;;3.20;2.13;;;;;;;19.11;87.70;101366.78;4984361;28;20202;-73
2022/09/04 09:36:35;;;;;;;2.23;2.00;;;;;;;19.29;88.91;101370.28;4982382;28;20562;-73
2022/09/04 09:39:43;;;;;;;3.77;2.00;;;;;;;19.33;85.87;101369.19;4977533;28;20221;-73
2022/09/04 09:42:39;;;;;;;3.27;2.17;;;;;;;19.44;88.20;101368.66;4984673;28;20204;-73
2022/09/04 09:45:32;;;;;;;3.17;2.47;;;;;;;19.53;88.83;101362.03;4980797;28;20237;-73
2022/09/04 09:48:46;;;;;;;2.50;2.17;;;;;;;19.67;87.13;101359.50;4994995;28;20321;-73
2022/09/04 09:51:38;;;;;;;2.67;2.30;;;;;;;19.63;81.93;101360.59;4997008;28;20573;-73
2022/09/04 09:54:31;;;;;;;3.00;1.97;;;;;;;19.65;83.40;101356.09;4981894;28;20584;-73
2022/09/04 09:57:36;;;;;;;2.83;2.00;;;;;;;19.68;81.96;101351.50;4980024;28;20220;-73
2022/09/04 10:00:13;;;;;;;3.10;2.30;;;;;;;19.88;84.72;101354.91;4980763;28;20201;-73
2022/09/04 10:03:02;;;;;;;3.63;2.17;;;;;;;19.94;81.69;101361.66;4982106;28;20225;-73
2022/09/04 10:05:55;;;;;;;2.50;2.03;;;;;;;19.98;81.74;101356.13;4980257;28;20217;-73
2022/09/04 10:08:46;;;;;;;2.93;2.10;;;;;;;19.97;79.92;101350.91;4982876;28;20225;-73
2022/09/04 10:11:29;;;;;;;2.87;2.30;;;;;;;20.08;83.49;101348.50;4982890;28;20205;-73
2022/09/04 10:14:42;;;;;;;1.90;1.70;;;;;;;20.22;80.46;101356.53;4983431;28;20198;-73
2022/09/04 10:17:31;;;;;;;3.23;2.20;;;;;;;20.31;78.61;101357.00;4999624;28;20216;-74
2022/09/04 10:20:32;;;;;;;4.73;2.17;;;;;;;20.41;80.11;101355.53;5001510;28;20580;-73
2022/09/04 10:23:33;;;;;;;3.03;2.07;;;;;;;20.53;79.30;101351.34;4970367;28;21486;-73
2022/09/04 10:26:38;;;;;;;3.20;2.37;;;;;;;20.68;79.32;101355.78;4986743;28;20228;-73
2022/09/04 10:29:36;;;;;;;3.30;2.10;;;;;;;20.72;79.47;101353.81;5003807;28;20216;-73
2022/09/04 10:32:37;;;;;;;3.27;2.50;;;;;;;20.74;77.32;101352.81;5005992;28;20362;-73
2022/09/04 10:35:24;;;;;;;3.30;1.97;;;;;;;20.62;75.44;101350.84;4959247;28;20401;-73
2022/09/04 10:38:04;;;;;;;3.17;2.10;;;;;;;20.68;75.10;101355.78;5002778;28;20200;-73
2022/09/04 10:40:45;;;;;;;3.90;2.50;;;;;;;20.78;75.31;101351.69;5003579;28;20204;-73
2022/09/04 10:43:27;;;;;;;2.93;2.50;;;;;;;20.95;75.45;101352.53;5004126;28;20196;-73
2022/09/04 10:46:00;;;;;;;3.20;2.20;;;;;;;20.96;73.95;101351.56;5001546;28;20442;-73
2022/09/04 10:48:53;;;;;;;3.80;2.37;;;;;;;20.93;74.27;101349.06;5004442;28;20227;-73
2022/09/04 10:51:43;;;;;;;5.47;1.97;;;;;;;21.01;72.33;101357.44;5004375;28;20211;-73
2022/09/04 10:54:34;;;;;;;2.30;2.10;;;;;;;21.20;75.48;101351.06;5000481;28;20197;-73
2022/09/04 10:57:12;;;;;;;2.50;2.30;;;;;;;21.41;74.71;101352.44;5003284;28;21462;-73
2022/09/04 10:59:50;;;;;;;2.63;2.00;;;;;;;21.34;69.28;101367.00;5002171;28;20224;-73
2022/09/04 11:02:39;;;;;;;2.40;1.87;;;;;;;21.35;70.61;101364.28;4991517;28;20665;-73
2022/09/04 11:05:35;;;;;;;3.47;2.30;;;;;;;21.38;69.67;101371.19;5003623;28;20663;-73
2022/09/04 11:08:42;;;;;;;3.90;2.10;;;;;;;21.54;70.10;101373.78;4993713;28;20236;-73
2022/09/04 11:11:22;;;;;;;2.10;1.90;;;;;;;21.59;69.45;101362.91;5001726;28;20207;-73
2022/09/04 11:14:12;;;;;;;2.57;1.90;;;;;;;21.59;67.50;101371.72;5002627;28;20475;-73
2022/09/04 11:16:58;;;;;;;1.77;1.63;;;;;;;21.58;65.72;101379.75;5003358;28;20196;-73
2022/09/04 11:20:13;;;;;;;6.23;2.10;;;;;;;21.46;69.85;101365.44;4987456;28;20602;-73
2022/09/04 11:23:11;;;;;;;3.27;2.07;;;;;;;21.62;68.17;101368.88;4965387;28;20202;-73
2022/09/04 11:26:05;;;;;;;2.87;1.80;;;;;;;21.58;67.31;101374.47;4980874;28;20656;-73
2022/09/04 11:28:59;;;;;;;2.17;1.80;;;;;;;21.73;68.42;101371.72;4980624;28;20225;-74
2022/09/04 11:31:34;;;;;;;2.90;1.60;;;;;;;21.87;67.73;101372.69;4984378;28;20693;-73
2022/09/04 11:34:34;;;;;;;2.13;1.83;;;;;;;21.78;66.41;101370.59;4977888;28;20200;-73
2022/09/04 11:37:23;;;;;;;2.50;1.97;;;;;;;21.83;66.58;101377.31;4964825;28;20872;-73
2022/09/04 11:40:15;;;;;;;2.28;1.90;;;;;;;22.18;67.65;101368.09;4974739;28;20225;-73
2022/09/04 11:42:58;;;;;;;2.97;1.95;;;;;;;22.29;64.29;101374.47;4983153;28;20317;-74
2022/09/04 11:45:54;;;;;;;3.73;2.20;;;;;;;22.14;65.71;101364.78;4976462;28;20697;-73
2022/09/04 11:48:41;;;;;;;3.93;2.30;;;;;;;22.09;66.68;101357.13;4976270;28;20732;-73
2022/09/04 11:51:36;;;;;;;3.10;2.00;;;;;;;22.22;65.06;101364.31;4982108;28;20686;-75
2022/09/04 11:54:40;;;;;;;2.33;1.70;;;;;;;22.29;66.07;101366.50;4982662;28;20585;-74
2022/09/04 11:57:13;;;;;;;2.38;2.17;;;;;;;22.38;66.13;101370.38;4979123;28;20235;-73
2022/09/04 12:00:02;;;;;;;2.03;1.83;;;;;;;22.44;65.16;101377.09;4985191;28;20709;-74
2022/09/04 12:02:53;;;;;;;3.90;2.20;;;;;;;22.47;68.29;101363.63;4982159;28;20971;-73
2022/09/04 12:05:38;;;;;;;2.38;1.90;;;;;;;22.48;63.57;101370.66;4980898;28;20225;-73
2022/09/04 12:08:23;;;;;;;1.85;1.73;;;;;;;22.37;64.74;101365.16;4981362;28;20694;-73
2022/09/04 12:11:09;;;;;;;3.45;2.15;;;;;;;22.56;64.84;101356.84;4981762;28;20274;-73
2022/09/04 12:14:08;;;;;;;2.90;2.00;;;;;;;22.76;63.36;101360.84;4968306;28;20209;-73
2022/09/04 12:17:16;;;;;;;2.85;2.00;;;;;;;22.62;62.44;101361.75;4982664;28;20204;-73
2022/09/04 12:20:12;;;;;;;3.40;1.65;;;;;;;22.56;62.18;101352.38;4994459;28;20700;-73
2022/09/04 12:23:05;;;;;;;1.58;1.48;;;;;;;22.58;61.42;101358.44;5002652;28;20264;-73
2022/09/04 12:25:48;;;;;;;2.33;1.83;;;;;;;22.73;63.46;101353.09;4998958;28;20228;-73
2022/09/04 12:28:36;;;;;;;2.45;1.85;;;;;;;22.79;61.34;101363.31;5003579;28;20221;-73
2022/09/04 12:31:21;;;;;;;2.78;1.52;;;;;;;22.66;61.74;101355.31;5001023;28;20215;-73